createdAt,value
2023-01-03T00:00:41.268Z,3.83
2023-01-03T00:03:09.331Z,3.73
2023-01-03T00:05:37.408Z,4.23
2023-01-03T00:08:05.730Z,3.70
2023-01-03T00:10:35.133Z,3.83
2023-01-03T00:13:02.269Z,4.70
2023-01-03T00:15:30.289Z,4.57
2023-01-03T00:17:58.365Z,3.90
2023-01-03T00:20:26.399Z,5.07
2023-01-03T00:22:54.440Z,4.47
2023-01-03T00:25:22.472Z,4.30
2023-01-03T00:27:51.901Z,4.60
2023-01-03T00:30:20.034Z,4.40
2023-01-03T00:32:48.071Z,4.73
2023-01-03T00:35:16.123Z,4.07
2023-01-03T00:37:44.181Z,5.10
2023-01-03T00:40:12.988Z,4.23
2023-01-03T00:42:54.889Z,4.80
2023-01-03T00:45:25.715Z,4.50
2023-01-03T00:47:54.494Z,3.90
2023-01-03T00:50:22.487Z,4.63
2023-01-03T00:52:50.516Z,4.50
2023-01-03T00:55:18.528Z,4.50
2023-01-03T00:57:46.568Z,4.60
2023-01-03T01:00:15.409Z,3.83
2023-01-03T01:02:45.151Z,3.93
2023-01-03T01:05:13.353Z,3.63
2023-01-03T01:07:41.356Z,4.20
2023-01-03T01:10:10.101Z,4.20
2023-01-03T01:12:38.112Z,4.00
2023-01-03T01:15:06.860Z,3.70
2023-01-03T01:17:34.843Z,4.00
2023-01-03T01:20:04.450Z,3.70
2023-01-03T01:22:32.514Z,3.70
2023-01-03T01:25:00.571Z,3.50
2023-01-03T01:27:28.632Z,3.70
2023-01-03T01:29:56.643Z,4.00
2023-01-03T01:32:24.991Z,3.63
2023-01-03T01:34:52.993Z,3.80
2023-01-03T01:37:22.386Z,3.23
2023-01-03T01:39:50.402Z,4.00
2023-01-03T01:42:36.920Z,3.50
2023-01-03T01:45:05.871Z,2.70
2023-01-03T01:47:39.865Z,3.47
2023-01-03T01:50:19.146Z,3.97
2023-01-03T01:52:52.124Z,3.17
2023-01-03T01:55:27.212Z,3.40
2023-01-03T01:57:55.220Z,3.50
2023-01-03T02:00:23.255Z,3.33
2023-01-03T02:02:53.289Z,3.27
2023-01-03T02:05:21.658Z,3.10
2023-01-03T02:07:51.986Z,3.63
2023-01-03T02:10:20.307Z,4.33
2023-01-03T02:13:08.530Z,3.17
2023-01-03T02:15:43.848Z,2.93
2023-01-03T02:18:33.729Z,2.90
2023-01-03T02:21:47.094Z,3.50
2023-01-03T02:24:43.026Z,2.40
2023-01-03T02:27:20.069Z,2.60
2023-01-03T02:30:20.865Z,2.80
2023-01-03T02:32:52.039Z,2.83
2023-01-03T02:35:22.438Z,2.90
2023-01-03T02:37:52.812Z,3.30
2023-01-03T02:40:24.050Z,2.80
2023-01-03T02:43:02.123Z,2.97
2023-01-03T02:45:39.530Z,3.37
2023-01-03T02:48:10.131Z,3.00
2023-01-03T02:50:44.322Z,3.07
2023-01-03T02:53:12.326Z,2.60
2023-01-03T02:55:40.377Z,2.97
2023-01-03T02:58:09.960Z,2.60
2023-01-03T03:00:41.475Z,2.53
2023-01-03T03:03:13.679Z,2.73
2023-01-03T03:05:46.625Z,2.70
2023-01-03T03:08:14.676Z,2.83
2023-01-03T03:11:00.106Z,2.63
2023-01-03T03:13:34.623Z,2.83
2023-01-03T03:16:06.402Z,2.90
2023-01-03T03:18:38.193Z,3.10
2023-01-03T03:21:24.107Z,2.63
2023-01-03T03:24:09.803Z,2.50
2023-01-03T03:26:39.194Z,3.20
2023-01-03T03:29:08.205Z,3.63
2023-01-03T03:31:39.872Z,2.93
2023-01-03T03:34:08.792Z,3.23
2023-01-03T03:36:40.539Z,2.70
2023-01-03T03:39:29.189Z,2.70
2023-01-03T03:42:16.467Z,3.10
2023-01-03T03:45:03.135Z,3.00
2023-01-03T03:47:38.528Z,3.23
2023-01-03T03:50:08.768Z,3.07
2023-01-03T03:52:36.860Z,3.20
2023-01-03T03:55:06.920Z,3.00
2023-01-03T03:57:36.497Z,3.07
2023-01-03T04:00:07.144Z,3.20
2023-01-03T04:02:36.557Z,3.27
2023-01-03T04:05:07.940Z,3.40
2023-01-03T04:07:36.030Z,3.90
2023-01-03T04:10:04.279Z,3.87
2023-01-03T04:12:32.381Z,3.50
2023-01-03T04:15:00.403Z,3.83
2023-01-03T04:17:28.408Z,3.30
2023-01-03T04:19:57.770Z,3.27
2023-01-03T04:22:25.805Z,3.27
2023-01-03T04:24:53.832Z,3.67
2023-01-03T04:27:21.932Z,3.17
2023-01-03T04:29:49.989Z,3.87
2023-01-03T04:32:17.985Z,3.67
2023-01-03T04:34:45.981Z,3.77
2023-01-03T04:37:15.368Z,3.97
2023-01-03T04:39:43.396Z,3.63
2023-01-03T04:42:25.295Z,3.50
2023-01-03T04:44:53.289Z,4.00
2023-01-03T04:47:21.334Z,3.87
2023-01-03T04:49:49.363Z,3.77
2023-01-03T04:52:18.777Z,4.00
2023-01-03T04:54:46.829Z,4.80
2023-01-03T04:57:14.850Z,4.27
2023-01-03T04:59:42.893Z,4.37
2023-01-03T05:02:11.056Z,4.20
2023-01-03T05:04:39.265Z,3.87
2023-01-03T05:07:07.428Z,3.90
2023-01-03T05:09:36.837Z,4.50
2023-01-03T05:12:05.208Z,4.57
2023-01-03T05:14:33.263Z,5.23
2023-01-03T05:17:01.400Z,4.40
2023-01-03T05:19:29.430Z,4.40
2023-01-03T05:22:14.850Z,4.20
2023-01-03T05:25:01.692Z,4.83
2023-01-03T05:27:31.825Z,4.07
2023-01-03T05:29:59.829Z,4.40
2023-01-03T05:32:29.213Z,3.70
2023-01-03T05:34:57.225Z,4.97
2023-01-03T05:37:25.853Z,4.33
2023-01-03T05:39:55.219Z,4.23
2023-01-03T05:42:23.210Z,4.30
2023-01-03T05:44:51.220Z,4.20
2023-01-03T05:47:19.238Z,4.33
2023-01-03T05:49:47.240Z,4.10
2023-01-03T05:52:15.277Z,4.10
2023-01-03T05:54:43.304Z,4.27
2023-01-03T05:57:12.705Z,3.93
2023-01-03T05:59:40.718Z,3.93
2023-01-03T06:02:08.827Z,3.80
2023-01-03T06:04:36.999Z,3.73
2023-01-03T06:07:05.054Z,4.37
2023-01-03T06:09:43.827Z,3.70
2023-01-03T06:12:13.238Z,3.80
2023-01-03T06:14:41.239Z,4.40
2023-01-03T06:17:27.027Z,3.60
2023-01-03T06:19:55.097Z,3.87
2023-01-03T06:22:23.151Z,3.40
2023-01-03T06:24:51.139Z,4.00
2023-01-03T06:27:20.793Z,4.00
2023-01-03T06:29:48.814Z,3.37
2023-01-03T06:32:16.867Z,4.07
2023-01-03T06:34:44.862Z,3.40
2023-01-03T06:37:12.889Z,3.10
2023-01-03T06:39:40.909Z,3.20
2023-01-03T06:42:26.665Z,3.63
2023-01-03T06:45:09.900Z,3.33
2023-01-03T06:47:55.947Z,3.20
2023-01-03T06:50:41.742Z,3.37
2023-01-03T06:53:13.424Z,3.30
2023-01-03T06:55:41.442Z,3.97
2023-01-03T06:58:09.440Z,3.40
2023-01-03T07:00:39.092Z,3.93
2023-01-03T07:03:11.093Z,2.97
2023-01-03T07:05:39.805Z,3.30
2023-01-03T07:08:07.905Z,3.30
2023-01-03T07:10:35.931Z,2.63
2023-01-03T07:13:21.688Z,3.23
2023-01-03T07:15:51.172Z,2.90
2023-01-03T07:18:19.270Z,3.20
2023-01-03T07:20:47.355Z,3.00
2023-01-03T07:23:15.406Z,2.70
2023-01-03T07:25:43.436Z,2.83
2023-01-03T07:28:11.548Z,3.10
2023-01-03T07:30:40.619Z,2.60
2023-01-03T07:33:10.457Z,3.00
2023-01-03T07:35:38.548Z,2.70
2023-01-03T07:38:08.021Z,2.83
2023-01-03T07:40:36.039Z,3.43
2023-01-03T07:43:20.589Z,2.93
2023-01-03T07:45:48.687Z,2.87
2023-01-03T07:48:18.111Z,2.63
2023-01-03T07:50:46.127Z,2.60
2023-01-03T07:53:17.056Z,2.97
2023-01-03T07:55:45.699Z,3.23
2023-01-03T07:58:13.775Z,2.33
2023-01-03T08:00:41.823Z,3.00
2023-01-03T08:03:11.337Z,2.67
2023-01-03T08:05:41.236Z,2.67
2023-01-03T08:08:09.219Z,2.97
2023-01-03T08:11:09.240Z,2.77
2023-01-03T08:13:37.477Z,2.47
2023-01-03T08:16:06.097Z,2.53
2023-01-03T08:18:34.146Z,2.90
2023-01-03T08:21:03.508Z,2.90
2023-01-03T08:23:31.597Z,2.53
2023-01-03T08:26:02.696Z,2.60
2023-01-03T08:28:30.816Z,2.80
2023-01-03T08:30:58.905Z,3.30
2023-01-03T08:33:27.034Z,2.43
2023-01-03T08:35:56.636Z,2.80
2023-01-03T08:38:28.522Z,2.33
2023-01-03T08:40:56.554Z,2.57
2023-01-03T08:43:24.551Z,2.53
2023-01-03T08:45:52.564Z,2.40
2023-01-03T08:48:21.241Z,2.20
2023-01-03T08:50:49.249Z,2.40
2023-01-03T08:53:17.429Z,2.43
2023-01-03T08:55:46.781Z,2.57
2023-01-03T08:58:14.810Z,2.37
2023-01-03T09:00:42.830Z,2.23
2023-01-03T09:03:11.169Z,2.23
2023-01-03T09:05:39.429Z,1.80
2023-01-03T09:08:07.579Z,2.10
2023-01-03T09:10:39.651Z,2.20
2023-01-03T09:13:11.558Z,2.60
2023-01-03T09:15:39.623Z,2.10
2023-01-03T09:18:09.031Z,2.00
2023-01-03T09:20:37.123Z,1.90
2023-01-03T09:23:05.144Z,2.00
2023-01-03T09:25:37.084Z,1.70
2023-01-03T09:28:05.883Z,2.20
2023-01-03T09:30:35.423Z,1.73
2023-01-03T09:33:04.944Z,1.90
2023-01-03T09:35:32.978Z,1.77
2023-01-03T09:38:00.981Z,1.90
2023-01-03T09:40:29.022Z,1.77
2023-01-03T09:43:18.537Z,2.10
2023-01-03T09:45:53.014Z,1.87
2023-01-03T09:48:22.195Z,1.73
2023-01-03T09:51:17.302Z,2.10
2023-01-03T09:53:56.447Z,1.80
2023-01-03T09:56:38.423Z,1.80
2023-01-03T09:59:29.547Z,1.83
2023-01-03T10:02:21.761Z,1.77
2023-01-03T10:05:13.001Z,1.70
2023-01-03T10:07:51.793Z,1.57
2023-01-03T10:10:23.605Z,1.70
2023-01-03T10:12:58.848Z,2.00
2023-01-03T10:15:29.362Z,1.50
2023-01-03T10:18:02.942Z,1.73
2023-01-03T10:20:43.901Z,1.57
2023-01-03T10:23:11.931Z,1.60
2023-01-03T10:25:40.343Z,1.93
2023-01-03T10:28:17.487Z,1.87
2023-01-03T10:31:07.358Z,1.60
2023-01-03T10:33:39.672Z,1.20
2023-01-03T10:36:08.082Z,1.70
2023-01-03T10:38:43.646Z,1.30
2023-01-03T10:41:17.157Z,1.70
2023-01-03T10:43:45.748Z,1.40
2023-01-03T10:46:16.136Z,1.80
2023-01-03T10:49:17.486Z,1.43
2023-01-03T10:51:42.516Z,1.70
2023-01-03T10:54:13.043Z,1.20
2023-01-03T10:56:41.057Z,1.50
2023-01-03T10:59:12.510Z,1.70
2023-01-03T11:01:40.710Z,1.43
2023-01-03T11:04:15.760Z,1.33
2023-01-03T11:06:57.103Z,2.10
2023-01-03T11:09:25.163Z,1.43
2023-01-03T11:11:55.045Z,1.33
2023-01-03T11:14:32.118Z,1.40
2023-01-03T11:17:01.277Z,1.23
2023-01-03T11:19:32.490Z,1.40
2023-01-03T11:22:06.521Z,1.20
2023-01-03T11:25:01.886Z,1.23
2023-01-03T11:27:55.110Z,1.20
2023-01-03T11:30:26.444Z,1.33
2023-01-03T11:33:02.661Z,1.20
2023-01-03T11:35:41.301Z,1.20
2023-01-03T11:38:18.567Z,1.20
2023-01-03T11:40:49.755Z,1.13
2023-01-03T11:43:25.068Z,1.23
2023-01-03T11:46:16.547Z,1.23
2023-01-03T11:49:12.253Z,1.00
2023-01-03T11:51:45.747Z,1.10
2023-01-03T11:54:27.815Z,1.57
2023-01-03T11:56:55.864Z,1.30
2023-01-03T11:59:50.597Z,1.20
2023-01-03T12:03:00.253Z,1.30
2023-01-03T12:05:40.880Z,1.40
2023-01-03T12:08:32.648Z,1.07
2023-01-03T12:11:03.080Z,1.27
2023-01-03T12:13:33.370Z,1.10
2023-01-03T12:16:04.246Z,1.30
2023-01-03T12:18:38.845Z,1.20
2023-01-03T12:21:10.272Z,1.10
2023-01-03T12:23:41.862Z,1.30
2023-01-03T12:26:11.223Z,1.23
2023-01-03T12:28:45.742Z,1.10
2023-01-03T12:31:21.688Z,1.50
2023-01-03T12:33:57.439Z,1.40
2023-01-03T12:36:30.332Z,1.00
2023-01-03T12:39:04.419Z,1.37
2023-01-03T12:41:34.520Z,1.00
2023-01-03T12:44:04.518Z,1.30
2023-01-03T12:46:34.173Z,1.27
2023-01-03T12:49:04.222Z,1.37
2023-01-03T12:51:32.305Z,1.33
2023-01-03T12:54:18.616Z,1.17
2023-01-03T12:57:15.125Z,1.23
2023-01-03T12:59:54.621Z,1.00
2023-01-03T13:02:25.379Z,1.50
2023-01-03T13:04:55.039Z,1.10
2023-01-03T13:07:24.508Z,1.10
2023-01-03T13:10:00.763Z,1.00
2023-01-03T13:12:30.208Z,0.80
2023-01-03T13:14:59.767Z,1.30
2023-01-03T13:17:28.187Z,1.10
2023-01-03T13:19:57.903Z,1.47
2023-01-03T13:22:50.329Z,0.97
2023-01-03T13:25:37.479Z,1.10
2023-01-03T13:28:07.096Z,1.10
2023-01-03T13:30:35.666Z,1.10
2023-01-03T13:33:20.249Z,1.60
2023-01-03T13:36:01.197Z,1.27
2023-01-03T13:38:31.497Z,0.97
2023-01-03T13:41:17.603Z,1.07
2023-01-03T13:43:48.169Z,1.00
2023-01-03T13:46:24.767Z,1.07
2023-01-03T13:48:57.589Z,1.10
2023-01-03T13:51:41.616Z,0.80
2023-01-03T13:54:28.069Z,1.10
2023-01-03T13:57:04.108Z,1.00
2023-01-03T13:59:35.946Z,1.10
2023-01-03T14:02:23.529Z,0.90
2023-01-03T14:05:16.169Z,1.13
2023-01-03T14:07:52.416Z,0.90
2023-01-03T14:10:28.014Z,0.83
2023-01-03T14:13:22.761Z,0.90
2023-01-03T14:15:50.860Z,1.00
2023-01-03T14:18:22.393Z,0.77
2023-01-03T14:20:51.365Z,1.20
2023-01-03T14:26:16.365Z,0.70
2023-01-03T14:28:47.912Z,0.90
2023-01-03T14:31:19.601Z,0.90
2023-01-03T14:33:49.665Z,0.90
2023-01-03T14:36:18.296Z,1.00
2023-01-03T14:38:48.240Z,0.90
2023-01-03T14:41:30.620Z,1.17
2023-01-03T14:44:03.965Z,1.00
2023-01-03T14:46:32.518Z,0.80
2023-01-03T14:49:03.773Z,0.70
2023-01-03T14:51:32.849Z,0.77
2023-01-03T14:54:01.451Z,0.70
2023-01-03T14:56:29.528Z,1.03
2023-01-03T14:58:57.711Z,0.70
2023-01-03T15:01:28.748Z,0.90
2023-01-03T15:03:57.020Z,0.97
2023-01-03T15:06:26.886Z,0.80
2023-01-03T15:08:55.915Z,1.00
2023-01-03T15:11:32.214Z,0.80
2023-01-03T15:14:02.273Z,1.10
2023-01-03T15:16:34.437Z,0.70
2023-01-03T15:19:04.863Z,0.70
2023-01-03T15:21:32.950Z,0.80
2023-01-03T15:24:01.044Z,1.00
2023-01-03T15:26:39.240Z,0.90
2023-01-03T15:29:09.043Z,0.77
2023-01-03T15:31:38.990Z,1.03
2023-01-03T15:34:15.211Z,0.90
2023-01-03T15:36:43.383Z,1.10
2023-01-03T15:39:13.765Z,1.00
2023-01-03T15:42:19.481Z,0.80
2023-01-03T15:44:43.708Z,0.80
2023-01-03T15:47:15.339Z,0.77
2023-01-03T15:49:45.276Z,0.90
2023-01-03T15:52:14.555Z,0.90
2023-01-03T15:54:42.851Z,0.70
2023-01-03T15:57:14.849Z,0.97
2023-01-03T15:59:43.702Z,0.70
2023-01-03T16:02:16.701Z,0.90
2023-01-03T16:04:44.994Z,0.90
2023-01-03T16:07:13.215Z,0.60
2023-01-03T16:09:44.313Z,1.03
2023-01-03T16:12:14.281Z,0.80
2023-01-03T16:14:42.469Z,0.73
2023-01-03T16:17:11.505Z,0.80
2023-01-03T16:19:40.937Z,0.87
2023-01-03T16:22:33.823Z,0.90
2023-01-03T16:24:59.011Z,0.87
2023-01-03T16:27:27.041Z,1.10
2023-01-03T16:29:56.225Z,1.00
2023-01-03T16:32:27.175Z,1.00
2023-01-03T16:34:56.921Z,0.90
2023-01-03T16:37:25.005Z,0.67
2023-01-03T16:39:53.083Z,1.27
2023-01-03T16:42:27.501Z,0.80
2023-01-03T16:44:55.978Z,1.00
2023-01-03T16:47:24.736Z,1.20
2023-01-03T16:49:54.664Z,0.90
2023-01-03T16:52:25.574Z,0.70
2023-01-03T16:54:53.607Z,1.10
2023-01-03T16:57:22.627Z,0.90
2023-01-03T16:59:50.685Z,1.00
2023-01-03T17:02:18.834Z,1.00
2023-01-03T17:04:47.017Z,1.17
2023-01-03T17:07:25.008Z,1.10
2023-01-03T17:09:53.034Z,1.07
2023-01-03T17:12:23.153Z,1.00
2023-01-03T17:14:51.164Z,0.90
2023-01-03T17:17:20.731Z,1.10
2023-01-03T17:20:06.508Z,1.10
2023-01-03T17:22:36.218Z,1.23
2023-01-03T17:25:04.295Z,1.10
2023-01-03T17:27:33.557Z,1.20
2023-01-03T17:30:03.157Z,1.10
2023-01-03T17:32:31.228Z,1.00
2023-01-03T17:34:59.267Z,1.30
2023-01-03T17:37:27.371Z,1.37
2023-01-03T17:39:57.871Z,1.10
2023-01-03T17:42:26.002Z,0.80
2023-01-03T17:45:13.714Z,1.00
2023-01-03T17:48:00.213Z,1.17
2023-01-03T17:50:38.408Z,1.10
2023-01-03T17:53:06.483Z,1.37
2023-01-03T17:55:35.909Z,1.13
2023-01-03T17:58:04.391Z,1.23
2023-01-03T18:00:32.607Z,1.00
2023-01-03T18:03:01.495Z,1.27
2023-01-03T18:05:30.402Z,1.10
2023-01-03T18:07:58.797Z,1.10
2023-01-03T18:10:31.444Z,1.03
2023-01-03T18:13:00.886Z,1.07
2023-01-03T18:15:28.933Z,0.80
2023-01-03T18:17:57.067Z,1.00
2023-01-03T18:20:26.547Z,1.07
2023-01-03T18:22:54.730Z,1.10
2023-01-03T18:25:23.884Z,1.07
2023-01-03T18:27:54.321Z,1.30
2023-01-03T18:30:23.899Z,1.20
2023-01-03T18:32:51.978Z,1.30
2023-01-03T18:35:27.514Z,1.07
2023-01-03T18:37:57.911Z,1.30
2023-01-03T18:40:27.502Z,1.07
2023-01-03T18:43:11.224Z,0.80
2023-01-03T18:45:41.123Z,1.10
2023-01-03T18:48:09.310Z,1.10
2023-01-03T18:50:37.419Z,1.10
2023-01-03T18:53:05.483Z,1.00
2023-01-03T18:55:34.512Z,1.20
2023-01-03T18:58:07.365Z,1.30
2023-01-03T19:00:35.441Z,1.17
2023-01-03T19:03:15.080Z,1.10
2023-01-03T19:05:43.212Z,1.23
2023-01-03T19:08:11.274Z,1.30
2023-01-03T19:10:39.298Z,1.00
2023-01-03T19:13:07.346Z,1.00
2023-01-03T19:15:35.464Z,1.27
2023-01-03T19:18:04.941Z,1.03
2023-01-03T19:20:35.553Z,0.80
2023-01-03T19:23:03.614Z,1.50
2023-01-03T19:25:31.656Z,1.20
2023-01-03T19:28:00.672Z,1.40
2023-01-03T19:30:37.245Z,1.00
2023-01-03T19:33:06.528Z,0.83
2023-01-03T19:35:35.974Z,1.13
2023-01-03T19:38:09.505Z,1.00
2023-01-03T19:40:37.976Z,1.10
2023-01-03T19:43:06.003Z,1.40
2023-01-03T19:45:39.213Z,1.00
2023-01-03T19:48:15.966Z,1.20
2023-01-03T19:50:45.396Z,1.07
2023-01-03T19:53:13.661Z,0.90
2023-01-03T19:55:42.751Z,1.13
2023-01-03T19:58:16.420Z,1.47
2023-01-03T20:00:44.598Z,0.90
2023-01-03T20:03:18.129Z,1.10
2023-01-03T20:05:47.734Z,1.20
2023-01-03T20:08:15.754Z,1.10
2023-01-03T20:10:43.905Z,1.00
2023-01-03T20:13:15.330Z,1.33
2023-01-03T20:15:44.559Z,0.93
2023-01-03T20:18:23.368Z,0.87
2023-01-03T20:20:53.171Z,1.30
2023-01-03T20:23:21.177Z,0.90
2023-01-03T20:25:50.477Z,1.47
2023-01-03T20:28:19.637Z,0.90
2023-01-03T20:30:47.722Z,1.17
2023-01-03T20:33:15.764Z,1.47
2023-01-03T20:38:33.601Z,1.00
2023-01-03T20:41:01.670Z,1.20
2023-01-03T20:43:29.669Z,1.10
2023-01-03T20:45:58.685Z,1.20
2023-01-03T20:48:27.051Z,1.00
2023-01-03T20:50:55.270Z,1.10
2023-01-03T20:53:24.036Z,1.20
2023-01-03T20:56:04.208Z,1.00
2023-01-03T20:58:32.289Z,1.10
2023-01-03T21:01:05.006Z,1.00
2023-01-03T21:03:39.006Z,1.13
2023-01-03T21:06:16.900Z,1.10
2023-01-03T21:08:55.816Z,1.23
2023-01-03T21:11:26.316Z,1.03
2023-01-03T21:13:54.423Z,1.40
2023-01-03T21:16:33.218Z,1.50
2023-01-03T21:19:10.667Z,0.97
2023-01-03T21:21:38.682Z,1.00
2023-01-03T21:24:07.569Z,0.87
2023-01-03T21:26:36.959Z,0.87
2023-01-03T21:29:05.083Z,1.10
2023-01-03T21:31:33.206Z,1.07
2023-01-03T21:34:01.951Z,1.30
2023-01-03T21:36:30.699Z,0.97
2023-01-03T21:38:59.017Z,1.00
2023-01-03T21:41:27.874Z,0.80
2023-01-03T21:43:57.654Z,1.00
2023-01-03T21:46:26.802Z,1.30
2023-01-03T21:48:55.252Z,0.90
2023-01-03T21:51:35.144Z,1.00
2023-01-03T21:54:06.878Z,0.90
2023-01-03T21:56:36.116Z,1.13
2023-01-03T21:59:05.504Z,1.30
2023-01-03T22:01:53.669Z,0.67
2023-01-03T22:04:20.763Z,0.90
2023-01-03T22:06:48.790Z,1.07
2023-01-03T22:09:30.684Z,0.90
2023-01-03T22:11:58.754Z,1.10
2023-01-03T22:14:28.174Z,1.13
2023-01-03T22:16:56.314Z,1.20
2023-01-03T22:19:24.370Z,0.90
2023-01-03T22:21:52.448Z,0.87
2023-01-03T22:24:20.470Z,1.20
2023-01-03T22:26:48.563Z,1.20
2023-01-03T22:29:16.850Z,1.07
2023-01-03T22:31:47.734Z,0.90
2023-01-03T22:34:15.848Z,1.10
2023-01-03T22:36:43.876Z,1.00
2023-01-03T22:39:12.129Z,0.90
2023-01-03T22:41:40.215Z,1.07
2023-01-03T22:44:08.247Z,1.17
2023-01-03T22:46:36.275Z,0.90
2023-01-03T22:49:05.666Z,0.90
2023-01-03T22:51:33.711Z,1.00
2023-01-03T22:54:01.751Z,1.07
2023-01-03T22:56:29.838Z,0.90
2023-01-03T22:58:57.869Z,1.10
2023-01-03T23:01:28.598Z,1.00
2023-01-03T23:03:59.914Z,0.90
2023-01-03T23:06:30.383Z,0.90
2023-01-03T23:08:58.605Z,1.03
2023-01-03T23:11:45.617Z,0.87
2023-01-03T23:14:14.393Z,0.80
2023-01-03T23:16:42.606Z,1.40
2023-01-03T23:19:12.813Z,0.60
2023-01-03T23:21:42.292Z,0.80
2023-01-03T23:24:12.881Z,0.97
2023-01-03T23:26:44.960Z,1.17
2023-01-03T23:29:14.270Z,0.90
2023-01-03T23:31:42.431Z,0.90
2023-01-03T23:34:11.038Z,0.80
2023-01-03T23:36:39.090Z,1.03
2023-01-03T23:39:08.464Z,1.00
2023-01-03T23:41:36.529Z,1.20
2023-01-03T23:44:04.568Z,1.00
2023-01-03T23:46:32.689Z,0.93
2023-01-03T23:49:00.911Z,1.00
2023-01-03T23:51:28.979Z,1.00
2023-01-03T23:53:56.985Z,0.83
2023-01-03T23:56:26.425Z,1.33
2023-01-03T23:58:54.466Z,1.23
